Time;durP1;ratioP1;P1;durP2;ratioP2;P2;SDS_P1;SDS_P2;PMS_P1;PMS_P2;Temp;Humidity;BMP_temperature;BMP_pressure;BME280_temperature;BME280_humidity;BME280_pressure;Samples;Min_cycle;Max_cycle;Signal;HPM_P1;HPM_P2
2022/05/28 00:01:11;;;;;;;3.08;2.00;;;;;;;;;;4993908;28;20042;-52
2022/05/28 00:03:38;;;;;;;3.83;2.33;;;;;;;;;;4993672;28;20401;-50
2022/05/28 00:06:17;;;;;;;3.15;2.08;;;;;;;;;;4993769;28;20049;-52
2022/05/28 00:08:45;;;;;;;4.43;2.70;;;;;;;;;;4993594;28;20045;-52
2022/05/28 00:11:21;;;;;;;4.13;2.08;;;;;;;;;;4993803;28;20042;-49
2022/05/28 00:13:49;;;;;;;4.93;2.45;;;;;;;;;;4993610;28;20046;-54
2022/05/28 00:16:17;;;;;;;4.97;2.15;;;;;;;;;;4993672;28;20046;-53
2022/05/28 00:18:46;;;;;;;3.78;2.47;;;;;;;;;;4993446;28;20442;-54
2022/05/28 00:21:14;;;;;;;4.63;2.38;;;;;;;;;;4993434;28;20054;-51
2022/05/28 00:23:45;;;;;;;4.40;2.20;;;;;;;;;;4993372;28;20117;-52
2022/05/28 00:26:14;;;;;;;4.70;2.65;;;;;;;;;;4993254;28;20042;-51
2022/05/28 00:28:42;;;;;;;4.60;2.05;;;;;;;;;;4993121;28;20078;-54
2022/05/28 00:31:10;;;;;;;5.80;2.47;;;;;;;;;;4993128;28;20410;-51
2022/05/28 00:33:38;;;;;;;3.38;2.15;;;;;;;;;;4993255;28;20039;-53
2022/05/28 00:36:09;;;;;;;6.03;2.40;;;;;;;;;;4993139;28;20572;-54
2022/05/28 00:38:39;;;;;;;5.18;2.30;;;;;;;;;;4993093;28;20041;-53
2022/05/28 00:41:07;;;;;;;6.95;2.25;;;;;;;;;;4992890;28;20513;-54
2022/05/28 00:43:38;;;;;;;2.83;1.92;;;;;;;;;;4993056;28;20045;-53
2022/05/28 00:46:09;;;;;;;3.47;2.17;;;;;;;;;;5008014;28;20047;-54
2022/05/28 00:48:49;;;;;;;4.75;1.90;;;;;;;;;;4992782;28;20039;-52
2022/05/28 00:51:34;;;;;;;4.65;2.47;;;;;;;;;;4992777;28;20039;-54
2022/05/28 00:54:05;;;;;;;8.55;2.80;;;;;;;;;;4992891;28;20050;-53
2022/05/28 00:56:33;;;;;;;4.40;2.40;;;;;;;;;;4992944;28;20065;-54
2022/05/28 00:59:01;;;;;;;3.17;2.05;;;;;;;;;;5007872;28;20860;-53
2022/05/28 01:01:31;;;;;;;4.35;2.42;;;;;;;;;;4991745;28;20136;-51
2022/05/28 01:04:28;;;;;;;5.57;2.42;;;;;;;;;;4992790;28;20050;-53
2022/05/28 01:07:12;;;;;;;3.50;2.15;;;;;;;;;;4992416;28;20053;-52
2022/05/28 01:09:44;;;;;;;3.83;2.38;;;;;;;;;;4992467;28;20133;-52
2022/05/28 01:12:17;;;;;;;2.95;2.10;;;;;;;;;;4992208;28;20117;-53
2022/05/28 01:15:00;;;;;;;3.97;2.45;;;;;;;;;;4992484;28;20405;-50
2022/05/28 01:17:35;;;;;;;7.68;4.18;;;;;;;;;;4992512;28;20045;-53
2022/05/28 01:20:11;;;;;;;6.75;3.92;;;;;;;;;;4992217;28;20039;-55
2022/05/28 01:23:01;;;;;;;4.45;2.42;;;;;;;;;;4992139;28;20514;-54
2022/05/28 01:25:57;;;;;;;5.25;2.83;;;;;;;;;;4992026;28;20038;-51
2022/05/28 01:28:40;;;;;;;5.47;3.00;;;;;;;;;;4992064;28;20054;-49
2022/05/28 01:31:09;;;;;;;8.30;4.22;;;;;;;;;;4992058;28;20042;-54
2022/05/28 01:33:43;;;;;;;6.43;3.50;;;;;;;;;;4992245;28;20038;-53
2022/05/28 01:36:13;;;;;;;6.40;3.50;;;;;;;;;;4990739;28;20077;-55
2022/05/28 01:38:44;;;;;;;5.65;3.22;;;;;;;;;;4991958;28;20030;-50
2022/05/28 01:41:13;;;;;;;17.05;8.38;;;;;;;;;;4992088;28;20462;-50
2022/05/28 01:43:44;;;;;;;6.80;3.95;;;;;;;;;;4991928;28;20050;-52
2022/05/28 01:46:13;;;;;;;5.32;3.47;;;;;;;;;;4992041;28;20038;-53
2022/05/28 01:48:43;;;;;;;4.50;2.72;;;;;;;;;;4992017;28;20085;-52
2022/05/28 01:51:14;;;;;;;3.67;2.78;;;;;;;;;;4990607;28;20046;-54
2022/05/28 01:56:31;;;;;;;4.53;3.05;;;;;;;;;;4992167;28;20592;-53
2022/05/28 01:58:58;;;;;;;4.40;2.60;;;;;;;;;;4991867;28;20042;-52
2022/05/28 02:01:26;;;;;;;4.38;2.28;;;;;;;;;;4991851;28;20093;-54
2022/05/28 02:04:00;;;;;;;4.68;2.72;;;;;;;;;;4991886;28;20042;-53
2022/05/28 02:06:29;;;;;;;5.30;3.30;;;;;;;;;;4991776;28;20075;-52
2022/05/28 02:08:59;;;;;;;5.85;3.38;;;;;;;;;;4992009;28;20053;-51
2022/05/28 02:11:34;;;;;;;10.18;4.78;;;;;;;;;;4991876;28;20394;-51
2022/05/28 02:14:23;;;;;;;5.50;3.17;;;;;;;;;;4994933;28;20046;-53
2022/05/28 02:17:03;;;;;;;5.15;3.13;;;;;;;;;;4992257;28;20421;-51
2022/05/28 02:19:52;;;;;;;7.03;3.45;;;;;;;;;;4990467;28;20050;-50
2022/05/28 02:22:26;;;;;;;4.93;3.28;;;;;;;;;;4995251;28;20042;-50
2022/05/28 02:24:59;;;;;;;5.05;2.85;;;;;;;;;;4995454;28;20046;-49
2022/05/28 02:27:29;;;;;;;5.13;3.10;;;;;;;;;;4995559;28;20046;-50
2022/05/28 02:30:00;;;;;;;4.50;2.85;;;;;;;;;;4995366;28;20039;-53
2022/05/28 02:32:27;;;;;;;11.40;4.93;;;;;;;;;;4994268;28;20046;-54
2022/05/28 02:34:54;;;;;;;14.00;7.53;;;;;;;;;;4995391;28;20050;-54
2022/05/28 02:37:23;;;;;;;5.15;3.42;;;;;;;;;;4995452;28;20042;-53
2022/05/28 02:39:51;;;;;;;5.40;3.20;;;;;;;;;;4995163;28;20053;-52
2022/05/28 02:42:19;;;;;;;3.55;2.63;;;;;;;;;;4995175;28;20490;-49
2022/05/28 02:44:47;;;;;;;4.18;2.88;;;;;;;;;;4995136;28;20042;-49
2022/05/28 02:47:14;;;;;;;5.10;3.15;;;;;;;;;;4995166;28;20461;-53
2022/05/28 02:49:41;;;;;;;8.02;2.72;;;;;;;;;;4995227;28;20081;-52
2022/05/28 02:52:09;;;;;;;4.68;2.60;;;;;;;;;;4995001;28;20038;-53
2022/05/28 02:54:37;;;;;;;3.83;2.63;;;;;;;;;;4995123;28;20034;-49
2022/05/28 02:57:04;;;;;;;4.00;2.53;;;;;;;;;;4995032;28;20045;-50
2022/05/28 02:59:32;;;;;;;62.47;30.63;;;;;;;;;;4995198;28;20038;-49
2022/05/28 03:01:59;;;;;;;9.63;5.60;;;;;;;;;;4995270;28;20498;-53
2022/05/28 03:04:27;;;;;;;4.03;2.90;;;;;;;;;;4994891;28;20046;-50
2022/05/28 03:06:54;;;;;;;4.85;2.63;;;;;;;;;;4994822;28;20096;-50
2022/05/28 03:09:22;;;;;;;2.92;2.17;;;;;;;;;;4994784;28;20042;-53
2022/05/28 03:11:49;;;;;;;4.63;2.45;;;;;;;;;;4994637;28;20039;-50
2022/05/28 03:14:17;;;;;;;3.40;2.30;;;;;;;;;;4994700;28;20042;-51
2022/05/28 03:16:44;;;;;;;5.32;2.25;;;;;;;;;;4994716;28;20042;-53
2022/05/28 03:19:12;;;;;;;3.53;2.42;;;;;;;;;;4994149;28;20498;-52
2022/05/28 03:21:39;;;;;;;3.28;2.40;;;;;;;;;;4994586;28;20046;-53
2022/05/28 03:24:07;;;;;;;4.57;2.47;;;;;;;;;;4994584;28;20494;-53
2022/05/28 03:26:35;;;;;;;4.10;2.53;;;;;;;;;;4993524;28;20097;-50
2022/05/28 03:29:05;;;;;;;5.38;2.67;;;;;;;;;;4994439;28;20041;-49
2022/05/28 03:31:32;;;;;;;4.57;2.50;;;;;;;;;;4994087;28;20034;-51
2022/05/28 03:34:00;;;;;;;18.92;9.18;;;;;;;;;;4993789;28;20117;-55
2022/05/28 03:36:28;;;;;;;8.45;5.60;;;;;;;;;;4994108;28;20038;-53
2022/05/28 03:38:56;;;;;;;4.30;2.78;;;;;;;;;;4994179;28;20042;-51
2022/05/28 03:41:23;;;;;;;5.55;3.05;;;;;;;;;;4994195;28;20125;-54
2022/05/28 03:43:51;;;;;;;5.32;3.22;;;;;;;;;;4994372;28;20057;-52
2022/05/28 03:46:21;;;;;;;5.18;2.33;;;;;;;;;;4994115;28;20121;-59
2022/05/28 03:48:48;;;;;;;2.80;2.22;;;;;;;;;;4993966;28;20066;-54
2022/05/28 03:51:15;;;;;;;3.25;2.10;;;;;;;;;;4994026;28;20038;-53
2022/05/28 03:53:43;;;;;;;4.55;2.00;;;;;;;;;;4994024;28;20046;-50
2022/05/28 03:56:10;;;;;;;3.20;2.10;;;;;;;;;;4993855;28;20042;-52
2022/05/28 03:58:38;;;;;;;4.00;2.30;;;;;;;;;;4993688;28;20042;-48
2022/05/28 04:01:06;;;;;;;4.38;2.40;;;;;;;;;;4993865;28;20047;-49
2022/05/28 04:03:35;;;;;;;4.38;2.33;;;;;;;;;;4993897;28;20041;-48
2022/05/28 04:06:04;;;;;;;4.13;2.40;;;;;;;;;;4992600;28;20069;-51
2022/05/28 04:08:31;;;;;;;197.50;97.43;;;;;;;;;;4994027;28;20074;-49
2022/05/28 04:10:58;;;;;;;24.00;12.63;;;;;;;;;;4993872;28;20437;-54
2022/05/28 04:13:27;;;;;;;6.70;3.90;;;;;;;;;;4993634;28;20046;-51
2022/05/28 04:15:54;;;;;;;3.53;2.35;;;;;;;;;;4993438;28;20123;-54
2022/05/28 04:18:21;;;;;;;3.70;2.15;;;;;;;;;;4993714;28;20137;-53
2022/05/28 04:20:49;;;;;;;5.32;2.40;;;;;;;;;;4993072;28;20509;-52
2022/05/28 04:23:17;;;;;;;3.97;2.08;;;;;;;;;;4993476;28;20046;-50
2022/05/28 04:25:45;;;;;;;3.85;2.00;;;;;;;;;;4993291;28;20498;-51
2022/05/28 04:28:12;;;;;;;4.63;2.17;;;;;;;;;;4993162;28;20046;-47
2022/05/28 04:30:40;;;;;;;3.85;2.35;;;;;;;;;;5004015;28;20414;-52
2022/05/28 04:33:08;;;;;;;3.28;2.22;;;;;;;;;;4993170;28;20109;-49
2022/05/28 04:35:37;;;;;;;4.38;2.15;;;;;;;;;;4993191;28;20061;-50
2022/05/28 04:38:05;;;;;;;3.55;2.50;;;;;;;;;;4992977;28;20042;-51
2022/05/28 04:40:33;;;;;;;5.43;2.35;;;;;;;;;;4992976;28;20038;-50
2022/05/28 04:43:01;;;;;;;3.50;2.50;;;;;;;;;;4992932;28;20039;-53
2022/05/28 04:45:28;;;;;;;4.05;2.63;;;;;;;;;;5007796;28;20077;-53
2022/05/28 04:47:55;;;;;;;70.22;37.13;;;;;;;;;;4992858;28;20477;-51
2022/05/28 04:50:23;;;;;;;8.02;5.07;;;;;;;;;;4993037;28;20038;-51
2022/05/28 04:52:51;;;;;;;5.07;3.28;;;;;;;;;;4992732;28;20111;-50
2022/05/28 04:55:22;;;;;;;5.28;2.97;;;;;;;;;;4993004;28;20049;-53
2022/05/28 04:57:53;;;;;;;3.53;2.25;;;;;;;;;;4993318;28;20034;-49
2022/05/28 05:00:23;;;;;;;4.25;2.38;;;;;;;;;;4992924;28;20073;-52
2022/05/28 05:02:51;;;;;;;2.85;1.95;;;;;;;;;;4993085;28;20034;-50
2022/05/28 05:05:20;;;;;;;4.70;2.55;;;;;;;;;;4992807;28;20034;-54
2022/05/28 05:07:48;;;;;;;57.28;36.70;;;;;;;;;;4992383;28;20057;-49
2022/05/28 05:10:15;;;;;;;10.07;6.57;;;;;;;;;;4992600;28;20042;-52
2022/05/28 05:12:43;;;;;;;4.03;2.63;;;;;;;;;;4992553;28;20077;-51
2022/05/28 05:15:11;;;;;;;3.63;2.33;;;;;;;;;;4992609;28;20042;-49
2022/05/28 05:17:39;;;;;;;3.53;2.30;;;;;;;;;;4992654;28;20058;-50
2022/05/28 05:20:08;;;;;;;4.75;2.97;;;;;;;;;;4993544;28;20375;-51
2022/05/28 05:22:36;;;;;;;5.85;2.97;;;;;;;;;;4996305;28;20045;-52
2022/05/28 05:25:04;;;;;;;4.93;2.92;;;;;;;;;;4975243;28;20510;-49
2022/05/28 05:27:31;;;;;;;3.70;2.38;;;;;;;;;;4992247;28;20126;-49
2022/05/28 05:29:59;;;;;;;3.20;1.98;;;;;;;;;;4992078;28;20077;-50
2022/05/28 05:32:27;;;;;;;50.05;28.30;;;;;;;;;;4992280;28;20074;-48
2022/05/28 05:34:54;;;;;;;8.05;4.80;;;;;;;;;;4992074;28;20049;-50
2022/05/28 05:37:21;;;;;;;4.50;2.63;;;;;;;;;;4992003;28;20398;-51
2022/05/28 05:39:48;;;;;;;3.78;2.40;;;;;;;;;;4992277;28;20035;-49
2022/05/28 05:42:16;;;;;;;3.53;2.65;;;;;;;;;;4992111;28;20060;-51
2022/05/28 05:44:43;;;;;;;4.60;2.90;;;;;;;;;;4992001;28;20041;-52
2022/05/28 05:47:10;;;;;;;5.60;2.97;;;;;;;;;;4991886;28;20034;-52
2022/05/28 05:49:37;;;;;;;6.90;3.50;;;;;;;;;;4991916;28;20510;-52
2022/05/28 05:52:05;;;;;;;5.30;3.60;;;;;;;;;;4990968;28;20057;-50
2022/05/28 05:54:32;;;;;;;6.85;3.80;;;;;;;;;;4990633;28;20038;-53
2022/05/28 05:57:00;;;;;;;4.72;3.60;;;;;;;;;;4991450;28;20050;-50
2022/05/28 05:59:28;;;;;;;6.25;3.88;;;;;;;;;;4991913;28;20065;-50
2022/05/28 06:01:55;;;;;;;5.43;3.50;;;;;;;;;;4991793;28;20070;-53
2022/05/28 06:04:23;;;;;;;5.18;3.58;;;;;;;;;;4992037;28;20050;-51
2022/05/28 06:06:50;;;;;;;4.72;3.53;;;;;;;;;;4991757;28;20379;-52
2022/05/28 06:09:17;;;;;;;31.42;16.60;;;;;;;;;;4991883;28;20046;-49
2022/05/28 06:11:45;;;;;;;6.28;4.70;;;;;;;;;;4991460;28;20043;-53
2022/05/28 06:14:12;;;;;;;5.85;3.95;;;;;;;;;;4991665;28;20045;-52
2022/05/28 06:16:40;;;;;;;5.75;4.10;;;;;;;;;;4991635;28;20121;-53
2022/05/28 06:19:08;;;;;;;5.53;3.83;;;;;;;;;;4991935;28;20039;-54
2022/05/28 06:21:36;;;;;;;5.13;3.63;;;;;;;;;;4991869;28;20105;-54
2022/05/28 06:24:03;;;;;;;6.22;3.70;;;;;;;;;;4991754;28;20039;-52
2022/05/28 06:26:31;;;;;;;26.98;16.85;;;;;;;;;;4991561;28;20125;-54
2022/05/28 06:28:58;;;;;;;5.32;4.18;;;;;;;;;;4991262;28;20090;-52
2022/05/28 06:31:25;;;;;;;4.43;3.55;;;;;;;;;;4991484;28;20406;-52
2022/05/28 06:33:52;;;;;;;5.97;3.63;;;;;;;;;;4991774;28;20410;-52
2022/05/28 06:36:20;;;;;;;6.43;3.75;;;;;;;;;;4991620;28;20477;-50
2022/05/28 06:38:47;;;;;;;5.25;3.45;;;;;;;;;;4991547;28;20469;-53
2022/05/28 06:41:14;;;;;;;4.60;4.05;;;;;;;;;;4991463;28;20521;-51
2022/05/28 06:43:42;;;;;;;4.50;3.40;;;;;;;;;;4991577;28;20045;-54
2022/05/28 06:46:12;;;;;;;5.57;3.28;;;;;;;;;;4991721;28;20038;-53
2022/05/28 06:48:40;;;;;;;5.78;2.95;;;;;;;;;;4991425;28;20045;-52
2022/05/28 06:51:07;;;;;;;5.22;3.35;;;;;;;;;;4991524;28;20438;-52
2022/05/28 06:53:38;;;;;;;4.35;3.15;;;;;;;;;;4991526;28;20042;-57
2022/05/28 06:56:06;;;;;;;44.28;24.58;;;;;;;;;;4991328;28;20043;-50
2022/05/28 06:58:35;;;;;;;6.00;3.65;;;;;;;;;;4991418;28;20461;-52
2022/05/28 07:01:03;;;;;;;12.07;3.30;;;;;;;;;;4991173;28;20046;-53
2022/05/28 07:03:31;;;;;;;5.65;3.20;;;;;;;;;;4991401;28;20043;-52
2022/05/28 07:05:59;;;;;;;4.18;2.90;;;;;;;;;;4991305;28;20043;-53
2022/05/28 07:08:26;;;;;;;4.28;2.83;;;;;;;;;;4994549;28;20038;-52
2022/05/28 07:10:56;;;;;;;5.78;2.97;;;;;;;;;;4994745;28;20373;-50
2022/05/28 07:13:25;;;;;;;6.72;3.90;;;;;;;;;;4994665;28;20053;-50
2022/05/28 07:15:52;;;;;;;10.85;6.88;;;;;;;;;;4994728;28;20098;-53
2022/05/28 07:18:20;;;;;;;5.07;3.03;;;;;;;;;;4994720;28;20046;-52
2022/05/28 07:20:48;;;;;;;3.72;3.17;;;;;;;;;;4994013;28;20046;-50
2022/05/28 07:23:27;;;;;;;4.60;3.00;;;;;;;;;;4994457;28;20149;-51
2022/05/28 07:26:03;;;;;;;7.38;3.42;;;;;;;;;;4994543;28;20112;-53
2022/05/28 07:28:32;;;;;;;4.40;3.80;;;;;;;;;;4994167;28;20061;-52
2022/05/28 07:31:05;;;;;;;5.38;3.92;;;;;;;;;;4994430;28;20070;-48
2022/05/28 07:33:37;;;;;;;4.43;3.60;;;;;;;;;;4994021;28;20046;-49
2022/05/28 07:36:06;;;;;;;8.63;3.83;;;;;;;;;;4994393;28;20053;-51
2022/05/28 07:38:34;;;;;;;5.10;3.83;;;;;;;;;;4994219;28;20529;-52
2022/05/28 07:41:08;;;;;;;9.43;4.47;;;;;;;;;;4994201;28;20061;-52
2022/05/28 07:43:36;;;;;;;6.70;4.28;;;;;;;;;;4994245;28;20042;-53
2022/05/28 07:46:14;;;;;;;13.48;8.50;;;;;;;;;;4993950;28;20046;-53
2022/05/28 07:48:44;;;;;;;7.68;4.03;;;;;;;;;;4994009;28;20038;-52
2022/05/28 07:51:11;;;;;;;7.07;3.40;;;;;;;;;;4992870;28;20038;-53
2022/05/28 07:53:38;;;;;;;4.07;3.45;;;;;;;;;;4993949;28;20498;-53
2022/05/28 07:56:07;;;;;;;5.10;3.63;;;;;;;;;;4994131;28;20043;-49
2022/05/28 07:58:34;;;;;;;5.78;3.90;;;;;;;;;;4993777;28;20129;-49
2022/05/28 08:01:04;;;;;;;5.45;3.60;;;;;;;;;;4993764;28;20517;-52
2022/05/28 08:03:31;;;;;;;5.40;3.78;;;;;;;;;;4993757;28;20406;-51
2022/05/28 08:05:59;;;;;;;7.72;3.72;;;;;;;;;;4993876;28;20106;-49
2022/05/28 08:08:27;;;;;;;6.10;4.15;;;;;;;;;;4993583;28;20039;-50
2022/05/28 08:10:55;;;;;;;4.78;4.03;;;;;;;;;;4993470;28;20073;-52
2022/05/28 08:13:24;;;;;;;6.07;3.85;;;;;;;;;;4993627;28;20053;-49
2022/05/28 08:15:53;;;;;;;6.18;3.88;;;;;;;;;;4993540;28;20030;-51
2022/05/28 08:18:23;;;;;;;4.93;4.40;;;;;;;;;;4992924;28;20049;-50
2022/05/28 08:23:40;;;;;;;5.35;4.38;;;;;;;;;;4993308;28;20039;-50
2022/05/28 08:26:09;;;;;;;6.15;4.90;;;;;;;;;;4993280;28;20104;-50
2022/05/28 08:28:38;;;;;;;7.25;5.03;;;;;;;;;;4993294;28;20070;-55
2022/05/28 08:31:06;;;;;;;7.30;5.57;;;;;;;;;;4993215;28;20049;-50
2022/05/28 08:33:35;;;;;;;9.57;4.95;;;;;;;;;;4993204;28;20117;-52
2022/05/28 08:36:03;;;;;;;8.38;6.80;;;;;;;;;;4993051;28;20387;-53
2022/05/28 08:38:30;;;;;;;8.38;6.25;;;;;;;;;;4993420;28;20469;-52
2022/05/28 08:41:03;;;;;;;6.90;4.65;;;;;;;;;;4992969;28;20065;-50
2022/05/28 08:43:33;;;;;;;6.15;4.55;;;;;;;;;;4992914;28;20046;-51
2022/05/28 08:46:03;;;;;;;6.68;5.45;;;;;;;;;;4992872;28;20502;-48
2022/05/28 08:48:48;;;;;;;21.00;5.45;;;;;;;;;;4992710;28;20054;-50
2022/05/28 08:51:42;;;;;;;6.93;4.82;;;;;;;;;;4992789;28;20405;-53
2022/05/28 08:54:22;;;;;;;;;;;;;;;;;;4990785;28;20418;-53
2022/05/28 08:56:52;;;;;;;6.50;5.40;;;;;;;;;;5007583;28;19926;-51
2022/05/28 08:59:37;;;;;;;6.72;5.45;;;;;;;;;;4992649;28;20069;-52
2022/05/28 09:02:17;;;;;;;8.55;6.15;;;;;;;;;;4992369;28;20042;-52
2022/05/28 09:04:47;;;;;;;7.82;7.03;;;;;;;;;;4992722;28;20057;-52
2022/05/28 09:07:15;;;;;;;16.48;11.57;;;;;;;;;;4992639;28;20038;-52
2022/05/28 09:09:49;;;;;;;8.02;7.10;;;;;;;;;;4992648;28;20490;-53
2022/05/28 09:12:30;;;;;;;7.60;6.80;;;;;;;;;;4992636;28;20097;-52
2022/05/28 09:14:57;;;;;;;8.93;6.45;;;;;;;;;;4992460;28;20039;-53
2022/05/28 09:17:34;;;;;;;7.28;6.47;;;;;;;;;;4992437;28;20087;-48
2022/05/28 09:20:22;;;;;;;11.32;7.30;;;;;;;;;;4992373;28;20050;-50
2022/05/28 09:22:50;;;;;;;11.63;9.02;;;;;;;;;;4992277;28;20449;-48
2022/05/28 09:25:22;;;;;;;7.22;6.53;;;;;;;;;;4992425;28;20113;-51
2022/05/28 09:27:58;;;;;;;8.10;6.35;;;;;;;;;;4992258;28;20043;-45
2022/05/28 09:30:44;;;;;;;8.27;6.43;;;;;;;;;;4991943;28;20093;-46
2022/05/28 09:33:37;;;;;;;6.15;5.28;;;;;;;;;;4992225;28;20516;-51
2022/05/28 09:36:08;;;;;;;6.65;5.45;;;;;;;;;;4992311;28;20046;-53
2022/05/28 09:39:03;;;;;;;6.30;4.97;;;;;;;;;;4991992;28;20121;-48
2022/05/28 09:41:50;;;;;;;10.15;5.78;;;;;;;;;;5006560;28;20045;-50
2022/05/28 09:44:41;;;;;;;7.63;5.35;;;;;;;;;;4992296;28;20085;-53
2022/05/28 09:47:12;;;;;;;6.57;5.28;;;;;;;;;;4992046;28;20043;-52
2022/05/28 09:49:54;;;;;;;8.73;4.78;;;;;;;;;;4991963;28;20494;-52
2022/05/28 09:52:31;;;;;;;6.10;4.60;;;;;;;;;;4991763;28;20045;-50
2022/05/28 09:55:15;;;;;;;19.00;13.23;;;;;;;;;;4992083;28;20042;-50
2022/05/28 09:58:01;;;;;;;6.65;4.60;;;;;;;;;;4992004;28;20047;-51
2022/05/28 10:00:29;;;;;;;5.50;3.88;;;;;;;;;;4991907;28;20070;-52
2022/05/28 10:05:55;;;;;;;5.55;4.35;;;;;;;;;;4992840;28;20038;-54
2022/05/28 10:08:31;;;;;;;7.95;4.15;;;;;;;;;;4990689;28;20050;-50
2022/05/28 10:11:04;;;;;;;5.43;4.53;;;;;;;;;;4991745;28;20043;-53
2022/05/28 10:13:43;;;;;;;5.15;4.20;;;;;;;;;;4991991;28;20506;-52
2022/05/28 10:16:12;;;;;;;5.85;4.03;;;;;;;;;;4991614;28;20038;-50
2022/05/28 10:19:02;;;;;;;4.95;3.50;;;;;;;;;;5006158;28;20062;-51
2022/05/28 10:21:38;;;;;;;5.05;3.60;;;;;;;;;;4990897;28;20042;-48
2022/05/28 10:24:16;;;;;;;5.32;3.72;;;;;;;;;;4991691;28;20043;-54
2022/05/28 10:26:51;;;;;;;4.65;3.75;;;;;;;;;;5006456;28;20490;-53
2022/05/28 10:29:30;;;;;;;6.10;3.00;;;;;;;;;;4987206;28;20125;-50
2022/05/28 10:32:01;;;;;;;6.75;3.63;;;;;;;;;;4972169;28;20046;-52
2022/05/28 10:34:36;;;;;;;5.60;4.05;;;;;;;;;;4972250;28;20042;-51
2022/05/28 10:37:13;;;;;;;5.57;4.00;;;;;;;;;;4971941;28;20035;-49
2022/05/28 10:39:42;;;;;;;4.35;3.25;;;;;;;;;;4972076;28;20035;-49
2022/05/28 10:42:12;;;;;;;7.10;3.20;;;;;;;;;;4973523;28;20055;-54
2022/05/28 10:44:41;;;;;;;4.07;3.10;;;;;;;;;;4975704;28;20384;-51
2022/05/28 10:47:23;;;;;;;3.90;3.10;;;;;;;;;;4976303;28;20035;-52
2022/05/28 10:50:05;;;;;;;4.43;3.00;;;;;;;;;;4975884;28;20051;-51
2022/05/28 10:52:59;;;;;;;4.53;2.80;;;;;;;;;;4975263;28;20051;-52
2022/05/28 10:55:40;;;;;;;5.25;3.10;;;;;;;;;;4975669;28;20051;-50
2022/05/28 10:58:33;;;;;;;4.22;3.28;;;;;;;;;;4975383;28;20053;-52
2022/05/28 11:01:27;;;;;;;4.22;2.97;;;;;;;;;;4974331;28;20050;-48
2022/05/28 11:04:25;;;;;;;5.68;3.17;;;;;;;;;;4960350;28;20117;-51
2022/05/28 11:07:18;;;;;;;4.30;2.92;;;;;;;;;;4975706;28;20089;-53
2022/05/28 11:10:22;;;;;;;4.57;3.25;;;;;;;;;;4975040;28;20078;-48
2022/05/28 11:13:22;;;;;;;5.90;2.65;;;;;;;;;;4934531;29;20061;-50
2022/05/28 11:16:25;;;;;;;7.70;4.55;;;;;;;;;;4952091;28;20047;-50
2022/05/28 11:19:18;;;;;;;5.15;2.97;;;;;;;;;;4978361;28;20082;-53
2022/05/28 11:21:52;;;;;;;4.70;2.80;;;;;;;;;;4994049;28;20039;-52
2022/05/28 11:24:47;;;;;;;4.43;3.00;;;;;;;;;;4994574;28;20035;-49
2022/05/28 11:27:20;;;;;;;6.80;2.95;;;;;;;;;;4994333;28;20061;-52
2022/05/28 11:29:58;;;;;;;3.85;2.63;;;;;;;;;;4994438;28;20085;-47
2022/05/28 11:32:34;;;;;;;3.45;2.83;;;;;;;;;;4994648;28;20050;-53
2022/05/28 11:35:15;;;;;;;7.97;2.80;;;;;;;;;;4994329;28;20585;-53
2022/05/28 11:37:56;;;;;;;4.18;2.78;;;;;;;;;;4994507;28;20051;-50
2022/05/28 11:40:27;;;;;;;6.70;2.78;;;;;;;;;;4994375;28;20618;-54
2022/05/28 11:43:24;;;;;;;4.45;2.70;;;;;;;;;;4994475;28;20042;-51
2022/05/28 11:46:09;;;;;;;3.45;2.50;;;;;;;;;;4993955;28;20046;-50
2022/05/28 11:52:04;;;;;;;4.93;2.40;;;;;;;;;;4993993;28;20074;-52
2022/05/28 11:54:38;;;;;;;4.07;2.80;;;;;;;;;;4993037;28;20473;-53
2022/05/28 11:57:20;;;;;;;5.53;2.47;;;;;;;;;;4994056;28;20402;-52
2022/05/28 11:59:49;;;;;;;19.63;12.25;;;;;;;;;;4994002;28;20093;-52
2022/05/28 12:02:23;;;;;;;7.88;4.25;;;;;;;;;;4993771;28;20122;-49
2022/05/28 12:04:54;;;;;;;2.50;1.90;;;;;;;;;;4993905;28;20410;-50
2022/05/28 12:07:34;;;;;;;3.50;2.15;;;;;;;;;;4993737;28;20469;-47
2022/05/28 12:10:06;;;;;;;2.70;2.03;;;;;;;;;;4993624;28;20589;-50
2022/05/28 12:12:51;;;;;;;3.45;2.20;;;;;;;;;;4993488;28;20050;-49
2022/05/28 12:15:18;;;;;;;2.75;1.85;;;;;;;;;;4993903;28;20042;-49
2022/05/28 12:18:22;;;;;;;2.85;1.77;;;;;;;;;;4993648;28;20409;-48
2022/05/28 12:20:53;;;;;;;3.22;1.80;;;;;;;;;;4992126;28;20057;-51
2022/05/28 12:23:47;;;;;;;3.22;1.90;;;;;;;;;;4993436;28;20046;-47
2022/05/28 12:26:49;;;;;;;3.58;1.70;;;;;;;;;;4992858;28;20125;-49
2022/05/28 12:29:34;;;;;;;3.63;1.50;;;;;;;;;;4993335;28;20039;-51
2022/05/28 12:32:17;;;;;;;8.15;3.53;;;;;;;;;;4991947;28;20505;-51
2022/05/28 12:35:05;;;;;;;2.47;1.55;;;;;;;;;;4993290;28;20050;-49
2022/05/28 12:37:36;;;;;;;3.50;1.70;;;;;;;;;;4993235;28;20034;-50
2022/05/28 12:40:15;;;;;;;2.92;1.42;;;;;;;;;;4993227;28;20053;-48
2022/05/28 12:42:42;;;;;;;2.58;1.45;;;;;;;;;;4992994;28;20066;-48
2022/05/28 12:45:18;;;;;;;3.50;2.00;;;;;;;;;;4992988;28;20045;-48
2022/05/28 12:47:45;;;;;;;2.70;1.30;;;;;;;;;;4992836;28;20050;-49
2022/05/28 12:50:18;;;;;;;2.55;1.73;;;;;;;;;;4992218;28;20092;-46
2022/05/28 12:52:59;;;;;;;2.67;1.40;;;;;;;;;;4992597;28;20100;-50
2022/05/28 12:55:38;;;;;;;6.60;3.30;;;;;;;;;;4993052;28;20038;-53
2022/05/28 12:58:20;;;;;;;2.25;1.48;;;;;;;;;;4992688;28;20046;-52
2022/05/28 13:01:01;;;;;;;2.28;1.50;;;;;;;;;;4992527;28;20057;-51
2022/05/28 13:03:32;;;;;;;4.03;1.52;;;;;;;;;;4992891;28;20133;-49
2022/05/28 13:06:13;;;;;;;3.65;1.58;;;;;;;;;;4992432;28;20046;-52
2022/05/28 13:08:48;;;;;;;3.45;1.48;;;;;;;;;;4992549;28;20034;-53
2022/05/28 13:11:56;;;;;;;3.08;1.58;;;;;;;;;;4992561;28;20046;-53
2022/05/28 13:14:54;;;;;;;3.00;1.50;;;;;;;;;;4982629;28;20825;-53
2022/05/28 13:17:34;;;;;;;3.38;1.35;;;;;;;;;;4992308;28;20109;-49
2022/05/28 13:20:16;;;;;;;4.22;1.60;;;;;;;;;;4992381;28;20061;-49
2022/05/28 13:23:02;;;;;;;2.60;1.40;;;;;;;;;;4992483;28;20054;-51
2022/05/28 13:26:06;;;;;;;2.78;1.40;;;;;;;;;;4992653;28;20577;-51
2022/05/28 13:28:54;;;;;;;2.58;1.30;;;;;;;;;;4976907;28;20101;-49
2022/05/28 13:31:29;;;;;;;2.05;1.20;;;;;;;;;;4972894;28;20042;-50
2022/05/28 13:33:57;;;;;;;2.83;1.20;;;;;;;;;;4972600;28;20107;-51
2022/05/28 13:36:28;;;;;;;1.85;1.30;;;;;;;;;;4972807;28;20078;-51
2022/05/28 13:38:59;;;;;;;2.95;1.77;;;;;;;;;;4972813;28;20050;-54
2022/05/28 13:41:34;;;;;;;3.17;1.58;;;;;;;;;;4972669;28;20066;-48
2022/05/28 13:44:07;;;;;;;1.35;1.13;;;;;;;;;;4972906;28;20498;-50
2022/05/28 13:46:36;;;;;;;4.30;1.40;;;;;;;;;;4972546;28;20043;-60
2022/05/28 13:49:08;;;;;;;17.23;9.93;;;;;;;;;;4972553;28;20520;-52
2022/05/28 13:51:47;;;;;;;3.28;1.63;;;;;;;;;;4972802;28;20089;-50
2022/05/28 13:54:14;;;;;;;3.03;1.38;;;;;;;;;;4972554;28;20051;-50
2022/05/28 13:56:53;;;;;;;3.55;1.75;;;;;;;;;;4972524;28;20039;-54
2022/05/28 13:59:33;;;;;;;4.47;2.33;;;;;;;;;;4991313;28;20042;-51
2022/05/28 14:02:02;;;;;;;2.17;1.48;;;;;;;;;;4992111;28;20117;-50
2022/05/28 14:04:33;;;;;;;2.60;1.38;;;;;;;;;;4992010;28;20057;-52
2022/05/28 14:07:03;;;;;;;3.95;1.40;;;;;;;;;;4992096;28;20042;-53
2022/05/28 14:09:40;;;;;;;3.97;1.58;;;;;;;;;;4991619;28;20045;-54
2022/05/28 14:12:09;;;;;;;3.90;1.30;;;;;;;;;;4991924;28;20097;-53
2022/05/28 14:14:42;;;;;;;6.40;1.60;;;;;;;;;;4991969;28;20045;-54
2022/05/28 14:17:40;;;;;;;6.65;1.60;;;;;;;;;;4993612;28;20042;-50
2022/05/28 14:20:26;;;;;;;4.28;1.60;;;;;;;;;;4980233;28;20058;-52
2022/05/28 14:22:58;;;;;;;2.70;1.80;;;;;;;;;;4995691;28;20042;-51
2022/05/28 14:25:30;;;;;;;4.80;1.80;;;;;;;;;;4995728;28;20042;-51
2022/05/28 14:28:13;;;;;;;12.07;5.07;;;;;;;;;;4995701;28;20042;-52
2022/05/28 14:30:42;;;;;;;10.73;6.65;;;;;;;;;;4995302;28;20133;-49
2022/05/28 14:33:24;;;;;;;4.72;2.15;;;;;;;;;;4995536;28;20125;-50
2022/05/28 14:35:52;;;;;;;5.53;3.00;;;;;;;;;;4995373;28;20096;-50
2022/05/28 14:38:28;;;;;;;7.95;2.95;;;;;;;;;;4995462;28;20038;-47
2022/05/28 14:40:56;;;;;;;3.08;2.20;;;;;;;;;;4995289;28;20046;-53
2022/05/28 14:43:33;;;;;;;5.60;3.58;;;;;;;;;;4995514;28;20518;-54
2022/05/28 14:46:22;;;;;;;8.23;6.20;;;;;;;;;;4995556;28;20582;-57
2022/05/28 14:49:07;;;;;;;8.45;5.10;;;;;;;;;;4991403;28;20119;-51
2022/05/28 14:51:39;;;;;;;7.22;6.20;;;;;;;;;;4995159;28;20046;-49
2022/05/28 14:54:29;;;;;;;7.53;6.47;;;;;;;;;;5010208;28;20437;-50
2022/05/28 14:56:58;;;;;;;6.05;3.90;;;;;;;;;;4995023;28;20073;-54
2022/05/28 14:59:40;;;;;;;4.70;2.55;;;;;;;;;;4995080;28;20050;-53
2022/05/28 15:02:36;;;;;;;3.83;1.92;;;;;;;;;;4995176;28;20046;-50
2022/05/28 15:05:24;;;;;;;3.75;2.47;;;;;;;;;;4994533;28;20058;-54
2022/05/28 15:08:03;;;;;;;5.60;2.75;;;;;;;;;;4994913;28;20046;-49
2022/05/28 15:10:45;;;;;;;7.25;2.30;;;;;;;;;;4994822;28;20088;-53
2022/05/28 15:13:24;;;;;;;17.65;11.70;;;;;;;;;;4994892;28;20038;-51
2022/05/28 15:15:54;;;;;;;5.68;3.45;;;;;;;;;;4994796;28;20073;-51
2022/05/28 15:18:23;;;;;;;4.35;2.47;;;;;;;;;;4994778;28;20039;-51
2022/05/28 15:20:51;;;;;;;5.60;1.90;;;;;;;;;;4994320;28;20086;-50
2022/05/28 15:23:20;;;;;;;2.33;1.63;;;;;;;;;;4994613;28;20043;-53
2022/05/28 15:25:47;;;;;;;2.28;1.50;;;;;;;;;;4994612;28;20501;-51
2022/05/28 15:28:16;;;;;;;2.25;1.30;;;;;;;;;;4993141;28;20528;-54
2022/05/28 15:30:43;;;;;;;5.63;2.83;;;;;;;;;;4994215;28;20061;-53